Time;durP1;ratioP1;P1;durP2;ratioP2;P2;SDS_P1;SDS_P2;PMS_P1;PMS_P2;Temp;Humidity;BMP_temperature;BMP_pressure;BME280_temperature;BME280_humidity;BME280_pressure;Samples;Min_cycle;Max_cycle;Signal;HPM_P1;HPM_P2
2023/02/16 00:00:50;;;;;;;37.60;22.02;;;5.50;99.90;;;;;;5046801;28;20036;-78
2023/02/16 00:03:21;;;;;;;36.92;22.70;;;5.50;99.90;;;;;;5047711;28;20541;-76
2023/02/16 00:05:48;;;;;;;42.25;26.48;;;5.40;99.90;;;;;;5044688;28;20040;-75
2023/02/16 00:08:14;;;;;;;51.88;32.10;;;5.40;99.90;;;;;;5042805;28;20047;-75
2023/02/16 00:13:43;;;;;;;53.13;31.80;;;5.40;99.90;;;;;;5036150;28;20033;-76
2023/02/16 00:13:43;;;;;;;51.28;31.38;;;5.40;99.90;;;;;;5043819;28;20041;-77
2023/02/16 00:16:15;;;;;;;48.35;29.25;;;5.30;99.90;;;;;;5042650;28;20024;-76
2023/02/16 00:18:41;;;;;;;42.63;26.63;;;5.30;99.90;;;;;;5045542;28;20041;-76
2023/02/16 00:21:07;;;;;;;47.35;28.20;;;5.30;99.90;;;;;;5030144;28;20032;-76
2023/02/16 00:23:34;;;;;;;40.13;24.33;;;5.30;99.90;;;;;;5045293;28;20036;-77
2023/02/16 00:26:00;;;;;;;49.60;29.02;;;5.30;99.90;;;;;;5035281;28;20052;-77
2023/02/16 00:28:26;;;;;;;43.30;25.70;;;5.30;99.90;;;;;;5051719;28;20033;-76
2023/02/16 00:30:53;;;;;;;44.97;29.33;;;5.30;99.90;;;;;;5038943;28;20040;-76
2023/02/16 00:33:20;;;;;;;46.70;29.50;;;5.30;99.90;;;;;;5046674;28;20463;-76
2023/02/16 00:35:47;;;;;;;43.78;28.33;;;5.30;99.90;;;;;;5045092;28;20374;-76
2023/02/16 00:38:15;;;;;;;38.60;23.10;;;5.20;99.90;;;;;;5044375;28;20771;-76
2023/02/16 00:40:42;;;;;;;39.13;25.02;;;5.20;99.90;;;;;;5029329;28;20052;-76
2023/02/16 00:43:26;;;;;;;41.20;27.60;;;5.20;99.90;;;;;;5030461;28;20037;-78
2023/02/16 00:45:53;;;;;;;52.42;32.63;;;5.20;99.90;;;;;;5063518;28;20510;-76
2023/02/16 00:48:21;;;;;;;47.47;28.85;;;5.20;99.90;;;;;;5043984;28;20037;-76
2023/02/16 00:50:47;;;;;;;42.90;26.20;;;5.20;99.90;;;;;;5014136;28;20059;-76
2023/02/16 00:53:17;;;;;;;45.53;28.17;;;5.20;99.90;;;;;;5033454;28;20044;-77
2023/02/16 00:55:44;;;;;;;39.22;24.63;;;5.10;99.90;;;;;;5047924;28;20037;-74
2023/02/16 00:58:19;;;;;;;45.45;27.10;;;5.10;99.90;;;;;;5047197;28;20035;-77
2023/02/16 01:00:50;;;;;;;35.95;22.10;;;5.10;99.90;;;;;;5042332;28;20550;-76
2023/02/16 01:03:23;;;;;;;30.17;19.70;;;5.10;99.90;;;;;;5047459;28;20048;-78
2023/02/16 01:11:06;;;;;;;37.95;22.98;;;5.00;99.90;;;;;;5051151;28;20369;-75
2023/02/16 01:11:22;;;;;;;36.17;23.02;;;5.00;99.90;;;;;;5041437;28;20040;-76
2023/02/16 01:13:50;;;;;;;39.97;24.50;;;4.90;99.90;;;;;;5036575;28;20498;-75
2023/02/16 01:16:21;;;;;;;40.95;26.50;;;4.90;99.90;;;;;;5046822;28;20520;-76
2023/02/16 01:18:48;;;;;;;37.92;22.63;;;4.90;99.90;;;;;;5050619;28;20032;-76
2023/02/16 01:21:14;;;;;;;43.20;27.92;;;4.90;99.90;;;;;;5046494;28;20021;-78
2023/02/16 01:23:41;;;;;;;37.22;22.00;;;4.90;99.90;;;;;;5048655;28;20475;-75
2023/02/16 01:26:16;;;;;;;38.85;23.38;;;4.80;99.90;;;;;;5044703;28;20036;-75
2023/02/16 01:28:46;;;;;;;40.92;23.63;;;4.90;99.90;;;;;;5046961;28;20463;-74
2023/02/16 01:31:15;;;;;;;43.53;26.20;;;4.80;99.90;;;;;;5030319;28;20047;-75
2023/02/16 01:33:42;;;;;;;42.05;27.55;;;4.80;99.90;;;;;;5020364;28;20479;-76
2023/02/16 01:36:36;;;;;;;42.33;26.13;;;4.80;99.90;;;;;;5048015;28;20496;-78
2023/02/16 01:39:03;;;;;;;39.45;25.15;;;4.80;99.90;;;;;;5032920;28;20061;-75
2023/02/16 01:41:41;;;;;;;44.47;27.58;;;4.70;99.90;;;;;;5025153;28;20033;-77
2023/02/16 01:44:22;;;;;;;44.45;26.90;;;4.70;99.90;;;;;;5045435;28;20523;-75
2023/02/16 01:46:51;;;;;;;38.15;25.08;;;4.70;99.90;;;;;;5043260;28;20037;-77
2023/02/16 01:49:20;;;;;;;43.45;25.77;;;4.70;99.90;;;;;;5030703;28;20130;-77
2023/02/16 01:51:55;;;;;;;40.88;25.73;;;4.70;99.90;;;;;;5022949;28;20029;-77
2023/02/16 01:54:36;;;;;;;44.88;27.77;;;4.60;99.90;;;;;;5041696;28;20041;-77
2023/02/16 01:57:19;;;;;;;38.88;25.15;;;4.70;99.90;;;;;;5042059;28;20047;-76
2023/02/16 01:59:49;;;;;;;36.75;22.90;;;4.60;99.90;;;;;;5046755;28;20036;-77
2023/02/16 02:02:18;;;;;;;36.80;21.23;;;4.60;99.90;;;;;;5036023;28;20036;-77
2023/02/16 02:07:54;;;;;;;37.08;23.63;;;4.60;99.90;;;;;;5041554;28;20024;-75
2023/02/16 02:10:41;;;;;;;39.67;24.42;;;4.50;99.90;;;;;;5057874;28;20032;-77
2023/02/16 02:13:25;;;;;;;37.17;25.02;;;4.50;99.90;;;;;;5028595;28;20032;-75
2023/02/16 02:15:52;;;;;;;38.00;22.77;;;4.50;99.90;;;;;;5043328;28;20045;-77
2023/02/16 02:18:19;;;;;;;35.40;23.58;;;4.40;99.90;;;;;;5033603;28;20367;-75
2023/02/16 02:24:22;;;;;;;40.15;24.83;;;4.40;99.90;;;;;;5050405;28;20029;-74
2023/02/16 02:26:56;;;;;;;45.42;28.63;;;4.40;99.90;;;;;;5029295;28;20377;-76
2023/02/16 02:29:47;;;;;;;43.42;27.95;;;4.40;99.90;;;;;;5041825;28;20499;-74
2023/02/16 02:32:28;;;;;;;40.25;26.08;;;4.30;99.90;;;;;;5036836;28;20037;-74
2023/02/16 02:35:02;;;;;;;35.05;22.30;;;4.30;99.90;;;;;;5040557;28;20029;-78
2023/02/16 02:37:51;;;;;;;40.40;26.27;;;4.30;99.90;;;;;;5043175;28;20464;-75
2023/02/16 02:40:33;;;;;;;32.10;18.88;;;4.30;99.90;;;;;;5037906;28;20040;-75
2023/02/16 02:43:24;;;;;;;36.58;23.08;;;4.30;99.90;;;;;;5049328;28;20020;-75
2023/02/16 02:45:55;;;;;;;45.47;28.20;;;4.30;99.90;;;;;;5042589;28;20056;-75
2023/02/16 02:48:21;;;;;;;45.80;27.90;;;4.30;99.90;;;;;;5048821;28;20049;-76
2023/02/16 03:00:39;;;;;;;41.40;25.65;;;4.30;99.90;;;;;;5040197;28;20048;-75
2023/02/16 03:02:22;;;;;;;47.00;28.48;;;4.40;99.90;;;;;;5035130;28;20029;-74
2023/02/16 03:04:50;;;;;;;43.28;29.20;;;4.40;99.90;;;;;;5024565;28;20045;-77
2023/02/16 03:07:17;;;;;;;51.70;31.50;;;4.50;99.90;;;;;;5025955;28;20193;-75
2023/02/16 03:09:44;;;;;;;46.80;30.00;;;4.50;99.90;;;;;;5039677;28;20534;-75
2023/02/16 03:15:00;;;;;;;43.50;26.67;;;4.60;99.90;;;;;;5041012;28;20052;-76
2023/02/16 03:31:33;;;;;;;47.83;29.00;;;4.60;99.90;;;;;;5039578;28;20036;-75
2023/02/16 03:33:59;;;;;;;38.95;24.60;;;4.60;99.90;;;;;;5046420;28;20052;-75
2023/02/16 03:36:28;;;;;;;43.35;25.85;;;4.60;99.90;;;;;;5042928;28;20052;-76
2023/02/16 03:38:56;;;;;;;41.50;26.25;;;4.60;99.90;;;;;;5043404;28;20040;-76
2023/02/16 03:41:23;;;;;;;42.17;26.88;;;4.50;99.90;;;;;;5040281;28;20041;-74
2023/02/16 03:43:50;;;;;;;38.25;25.25;;;4.50;99.90;;;;;;5047994;28;20025;-74
2023/02/16 03:46:16;;;;;;;37.08;24.73;;;4.40;99.90;;;;;;5049304;28;20032;-77
2023/02/16 03:48:42;;;;;;;41.72;25.45;;;4.40;99.90;;;;;;5051510;28;20036;-78
2023/02/16 03:51:09;;;;;;;36.38;23.25;;;4.40;99.90;;;;;;5033739;28;20792;-76
2023/02/16 03:53:35;;;;;;;36.42;23.45;;;4.40;99.90;;;;;;5041497;28;20114;-76
2023/02/16 03:56:01;;;;;;;42.47;26.70;;;4.30;99.90;;;;;;5070147;28;20410;-75
2023/02/16 03:58:27;;;;;;;39.92;25.23;;;4.30;99.90;;;;;;5034883;28;20058;-76
2023/02/16 04:00:54;;;;;;;36.95;25.20;;;4.30;99.90;;;;;;5041373;28;20042;-76
2023/02/16 04:03:20;;;;;;;48.30;28.67;;;4.30;99.90;;;;;;5049656;28;20031;-75
2023/02/16 04:05:46;;;;;;;41.00;25.63;;;4.30;99.90;;;;;;5046431;28;20043;-78
2023/02/16 04:08:13;;;;;;;41.57;26.33;;;4.30;99.90;;;;;;5067842;28;20407;-77
2023/02/16 04:10:39;;;;;;;37.70;24.90;;;4.30;99.90;;;;;;5040388;28;20449;-78
2023/02/16 04:13:05;;;;;;;37.38;24.02;;;4.30;99.90;;;;;;5066903;28;20028;-74
2023/02/16 04:15:32;;;;;;;41.33;25.20;;;4.30;99.90;;;;;;5047175;28;20041;-75
2023/02/16 04:17:59;;;;;;;42.28;26.10;;;4.40;99.90;;;;;;5054271;28;20036;-75
2023/02/16 04:20:29;;;;;;;42.00;26.52;;;4.40;99.90;;;;;;5043728;28;20068;-77
2023/02/16 04:22:55;;;;;;;43.80;27.25;;;4.50;99.90;;;;;;5063699;28;20035;-76
2023/02/16 04:25:22;;;;;;;43.27;28.73;;;4.50;99.90;;;;;;5064242;28;20028;-77
2023/02/16 04:27:49;;;;;;;45.40;29.45;;;4.60;99.90;;;;;;5047771;28;20633;-75
2023/02/16 04:30:21;;;;;;;48.75;30.75;;;4.70;99.90;;;;;;5049805;28;20043;-79
2023/02/16 04:32:48;;;;;;;46.40;30.50;;;4.70;99.90;;;;;;5051491;28;20027;-76
2023/02/16 04:35:15;;;;;;;44.58;29.42;;;4.80;99.90;;;;;;5063240;28;20044;-78
2023/02/16 04:37:41;;;;;;;39.78;26.33;;;4.90;99.90;;;;;;5068541;28;20471;-75
2023/02/16 04:40:12;;;;;;;49.63;31.75;;;4.90;99.90;;;;;;5045541;28;20338;-79
2023/02/16 04:42:43;;;;;;;43.65;27.70;;;5.00;99.90;;;;;;5034590;28;20043;-76
2023/02/16 04:45:10;;;;;;;42.35;28.42;;;5.00;99.90;;;;;;5045916;28;20515;-77
2023/02/16 04:47:37;;;;;;;41.67;26.65;;;5.00;99.90;;;;;;5062637;28;20035;-78
2023/02/16 04:50:03;;;;;;;38.90;25.23;;;5.10;99.90;;;;;;5045713;28;20102;-78
2023/02/16 04:52:31;;;;;;;42.45;27.58;;;5.20;99.90;;;;;;5032855;28;20748;-76
2023/02/16 04:54:57;;;;;;;43.70;29.73;;;5.20;99.90;;;;;;5046912;28;20038;-76
2023/02/16 04:57:24;;;;;;;40.15;23.67;;;5.20;99.90;;;;;;5048738;28;20044;-75
2023/02/16 04:59:50;;;;;;;45.13;28.60;;;5.20;99.90;;;;;;5064859;28;20032;-78
2023/02/16 05:02:16;;;;;;;45.70;29.92;;;5.30;99.90;;;;;;5054759;28;20884;-75
2023/02/16 05:04:43;;;;;;;43.08;27.92;;;5.30;99.90;;;;;;5048056;28;20406;-75
2023/02/16 05:07:09;;;;;;;47.10;31.80;;;5.30;99.90;;;;;;5047259;28;20036;-74
2023/02/16 05:09:35;;;;;;;61.10;38.63;;;5.40;99.90;;;;;;5065071;28;20745;-74
2023/02/16 05:14:46;;;;;;;52.47;31.95;;;5.40;99.90;;;;;;5063423;28;20049;-74
2023/02/16 05:17:24;;;;;;;59.10;36.63;;;5.40;99.90;;;;;;5064904;28;20047;-75
2023/02/16 05:19:53;;;;;;;49.30;32.13;;;5.40;99.90;;;;;;5060512;28;20035;-74
2023/02/16 05:22:20;;;;;;;50.05;31.83;;;5.40;99.90;;;;;;5055384;28;20908;-74
2023/02/16 05:24:46;;;;;;;51.47;33.67;;;5.40;99.90;;;;;;5062041;28;20482;-75
2023/02/16 05:27:16;;;;;;;52.88;32.95;;;5.50;99.90;;;;;;5066417;28;20028;-74
2023/02/16 05:29:42;;;;;;;46.95;30.75;;;5.50;99.90;;;;;;5069259;28;20415;-75
2023/02/16 05:32:09;;;;;;;46.00;30.65;;;5.50;99.90;;;;;;5042795;28;20463;-75
2023/02/16 05:34:35;;;;;;;50.95;33.20;;;5.50;99.90;;;;;;5036888;28;20493;-77
2023/02/16 05:37:01;;;;;;;60.85;39.25;;;5.50;99.90;;;;;;5064452;28;20040;-75
2023/02/16 05:39:28;;;;;;;50.63;32.03;;;5.50;99.90;;;;;;5036894;28;20491;-74
2023/02/16 05:41:54;;;;;;;55.58;34.90;;;5.50;99.90;;;;;;5038370;28;20036;-75
2023/02/16 05:44:21;;;;;;;52.30;32.88;;;5.50;99.90;;;;;;5045278;28;20482;-75
2023/02/16 05:46:47;;;;;;;54.67;35.03;;;5.60;99.90;;;;;;5052719;28;20039;-74
2023/02/16 05:49:14;;;;;;;56.90;35.42;;;5.60;99.90;;;;;;5065587;28;20035;-74
2023/02/16 05:51:41;;;;;;;41.95;27.08;;;5.60;99.90;;;;;;5036151;28;20499;-75
2023/02/16 05:54:09;;;;;;;53.25;33.33;;;5.60;99.90;;;;;;5070428;28;20033;-75
2023/02/16 05:56:36;;;;;;;51.58;34.30;;;5.60;99.90;;;;;;5044266;28;22738;-76
2023/02/16 05:59:02;;;;;;;58.17;36.42;;;5.60;99.90;;;;;;5046475;28;20057;-74
2023/02/16 06:01:28;;;;;;;61.30;36.78;;;5.60;99.90;;;;;;5025117;28;20510;-76
2023/02/16 06:03:55;;;;;;;55.10;35.13;;;5.60;99.90;;;;;;5044363;28;20028;-74
2023/02/16 06:06:21;;;;;;;64.50;39.92;;;5.60;99.90;;;;;;5067830;28;20032;-77
2023/02/16 06:08:47;;;;;;;59.38;38.65;;;5.60;99.90;;;;;;5052956;28;20821;-74
2023/02/16 06:14:00;;;;;;;71.18;42.10;;;5.60;99.90;;;;;;5069167;28;20833;-75
2023/02/16 06:16:29;;;;;;;63.55;41.10;;;5.60;99.90;;;;;;5045043;28;20043;-75
2023/02/16 06:18:56;;;;;;;59.78;36.97;;;5.60;99.90;;;;;;5045674;28;20051;-75
2023/02/16 06:21:23;;;;;;;52.70;33.95;;;5.70;99.90;;;;;;5054419;28;20048;-74
2023/02/16 06:23:50;;;;;;;55.42;33.72;;;5.70;99.90;;;;;;5063789;28;20968;-75
2023/02/16 06:26:16;;;;;;;51.13;33.60;;;5.70;99.90;;;;;;5059871;28;20028;-75
2023/02/16 06:28:42;;;;;;;53.13;35.15;;;5.70;99.90;;;;;;5065463;28;21105;-77
2023/02/16 06:31:09;;;;;;;52.03;34.95;;;5.70;99.90;;;;;;5052915;28;20044;-74
2023/02/16 06:33:36;;;;;;;61.10;36.65;;;5.70;99.90;;;;;;5046649;28;20475;-74
2023/02/16 06:36:02;;;;;;;52.90;33.17;;;5.80;99.90;;;;;;5045465;28;20541;-76
2023/02/16 06:38:29;;;;;;;53.55;34.58;;;5.80;99.90;;;;;;5032809;28;20415;-78
2023/02/16 06:40:55;;;;;;;56.65;36.17;;;5.80;99.90;;;;;;5036071;28;20040;-76
2023/02/16 06:43:21;;;;;;;53.13;34.75;;;5.80;99.90;;;;;;5034996;28;20047;-75
2023/02/16 06:45:48;;;;;;;58.78;38.10;;;5.80;99.90;;;;;;5059149;28;20484;-74
2023/02/16 06:48:14;;;;;;;50.78;34.10;;;5.80;99.90;;;;;;5064610;28;20043;-75
2023/02/16 06:50:40;;;;;;;53.42;35.58;;;5.80;99.90;;;;;;5054173;28;20043;-74
2023/02/16 06:53:06;;;;;;;52.65;32.47;;;5.80;99.90;;;;;;5068021;28;20495;-75
2023/02/16 06:55:35;;;;;;;53.75;35.72;;;5.90;99.90;;;;;;5056965;28;20036;-74
2023/02/16 06:58:03;;;;;;;52.00;34.72;;;5.80;99.90;;;;;;5071869;28;20047;-74
2023/02/16 07:00:30;;;;;;;54.97;36.63;;;5.90;99.90;;;;;;5065341;28;20024;-75
2023/02/16 07:02:56;;;;;;;52.25;32.17;;;5.90;99.90;;;;;;5040030;28;20039;-74
2023/02/16 07:05:23;;;;;;;50.17;31.05;;;5.90;99.90;;;;;;5037871;28;20033;-74
2023/02/16 07:07:49;;;;;;;52.42;34.60;;;6.00;99.90;;;;;;5053714;28;20028;-82
2023/02/16 07:10:16;;;;;;;55.85;36.90;;;6.00;99.90;;;;;;5047078;28;20099;-78
2023/02/16 07:12:42;;;;;;;51.85;33.83;;;6.00;99.90;;;;;;5069250;28;20039;-81
2023/02/16 07:15:08;;;;;;;59.15;37.85;;;6.10;99.90;;;;;;5050392;28;20749;-80
2023/02/16 07:17:35;;;;;;;52.83;33.60;;;6.10;99.90;;;;;;5050151;28;20033;-78
2023/02/16 07:20:03;;;;;;;53.97;33.55;;;6.10;99.90;;;;;;5067246;28;20487;-83
2023/02/16 07:22:30;;;;;;;46.20;30.83;;;6.20;99.90;;;;;;5039455;28;20498;-79
2023/02/16 07:24:57;;;;;;;48.25;29.65;;;6.20;99.90;;;;;;5035565;28;20064;-83
2023/02/16 07:27:24;;;;;;;46.15;30.40;;;6.20;99.90;;;;;;5059755;28;20020;-79
2023/02/16 07:29:50;;;;;;;46.83;29.30;;;6.20;99.90;;;;;;5057671;28;20024;-77
2023/02/16 07:32:17;;;;;;;42.83;28.02;;;6.20;99.90;;;;;;5043893;28;20032;-77
2023/02/16 07:34:44;;;;;;;69.68;44.50;;;6.30;99.90;;;;;;5055689;28;20033;-81
2023/02/16 07:37:11;;;;;;;65.00;42.42;;;6.20;99.90;;;;;;5042256;28;20044;-74
2023/02/16 07:39:37;;;;;;;59.53;37.53;;;6.30;99.90;;;;;;5050992;28;20036;-76
2023/02/16 07:42:04;;;;;;;53.17;36.15;;;6.30;99.90;;;;;;5043413;28;20033;-74
2023/02/16 07:44:33;;;;;;;52.28;33.65;;;6.30;99.90;;;;;;5053341;28;20372;-75
2023/02/16 07:46:59;;;;;;;51.90;33.35;;;6.40;99.90;;;;;;5071885;28;20541;-74
2023/02/16 07:49:25;;;;;;;51.72;34.15;;;6.40;99.90;;;;;;5070625;28;20514;-74
2023/02/16 07:51:51;;;;;;;47.53;31.52;;;6.50;99.90;;;;;;5041519;28;20040;-77
2023/02/16 07:54:18;;;;;;;46.30;32.70;;;6.50;99.90;;;;;;5041384;28;20048;-74
2023/02/16 07:56:45;;;;;;;49.72;33.90;;;6.60;99.90;;;;;;5050098;28;20047;-75
2023/02/16 07:59:14;;;;;;;44.55;31.10;;;6.70;99.90;;;;;;5051756;28;20040;-74
2023/02/16 08:01:41;;;;;;;53.00;36.78;;;6.70;99.90;;;;;;5045104;28;20037;-74
2023/02/16 08:04:07;;;;;;;63.25;39.80;;;6.80;99.90;;;;;;5064516;28;20043;-75
2023/02/16 08:06:34;;;;;;;64.88;41.40;;;6.80;99.90;;;;;;5065105;28;20036;-75
2023/02/16 08:09:00;;;;;;;56.63;39.70;;;6.90;99.90;;;;;;5053726;28;20040;-74
2023/02/16 08:11:27;;;;;;;57.03;39.67;;;7.00;99.90;;;;;;5056374;28;20427;-74
2023/02/16 08:13:53;;;;;;;56.78;36.35;;;7.10;99.90;;;;;;5045186;28;20040;-74
2023/02/16 08:16:22;;;;;;;48.03;32.55;;;7.20;99.90;;;;;;5064967;28;20041;-74
2023/02/16 08:18:49;;;;;;;50.20;33.78;;;7.30;99.90;;;;;;5036270;28;20047;-76
2023/02/16 08:21:18;;;;;;;53.20;36.95;;;7.30;99.90;;;;;;5054487;28;20043;-74
2023/02/16 08:23:51;;;;;;;53.00;34.45;;;7.30;99.90;;;;;;5030655;28;20040;-74
2023/02/16 08:26:18;;;;;;;54.33;37.00;;;7.40;99.90;;;;;;5047370;28;20066;-75
2023/02/16 08:28:46;;;;;;;64.57;41.47;;;7.40;99.90;;;;;;5045708;28;20051;-76
2023/02/16 08:31:15;;;;;;;55.60;35.88;;;7.40;99.90;;;;;;5054262;28;20449;-74
2023/02/16 08:33:42;;;;;;;46.63;31.90;;;7.40;99.90;;;;;;5063469;28;20032;-74
2023/02/16 08:36:22;;;;;;;50.20;33.70;;;7.40;99.90;;;;;;5042504;28;20036;-74
2023/02/16 08:38:51;;;;;;;51.47;34.28;;;7.40;99.90;;;;;;5063548;28;20497;-75
2023/02/16 08:41:18;;;;;;;50.13;34.83;;;7.40;99.90;;;;;;5045602;28;20451;-74
2023/02/16 08:43:45;;;;;;;57.58;38.13;;;7.40;99.90;;;;;;5042795;28;20040;-74
2023/02/16 08:46:11;;;;;;;60.15;41.17;;;7.40;99.90;;;;;;5061583;28;20032;-74
2023/02/16 08:48:38;;;;;;;53.67;36.90;;;7.40;99.90;;;;;;5051043;28;20446;-74
2023/02/16 08:51:05;;;;;;;62.08;40.45;;;7.40;99.90;;;;;;5057193;28;20036;-73
2023/02/16 08:53:33;;;;;;;52.78;36.10;;;7.40;99.90;;;;;;5065180;28;20607;-75
2023/02/16 08:56:02;;;;;;;49.00;33.47;;;7.40;99.90;;;;;;5043305;28;20491;-74
2023/02/16 08:58:29;;;;;;;48.60;34.55;;;7.40;99.90;;;;;;5068071;28;20036;-75
2023/02/16 09:00:56;;;;;;;53.97;36.05;;;7.50;99.90;;;;;;5036174;28;20033;-73
2023/02/16 09:03:23;;;;;;;51.72;35.88;;;7.50;99.90;;;;;;5037980;28;20034;-76
2023/02/16 09:05:51;;;;;;;47.50;31.60;;;7.50;99.90;;;;;;5045244;28;20048;-76
2023/02/16 09:08:18;;;;;;;56.45;35.97;;;7.50;99.90;;;;;;5061400;28;20509;-73
2023/02/16 09:10:44;;;;;;;58.80;38.25;;;7.60;99.90;;;;;;5029688;28;20036;-77
2023/02/16 09:13:14;;;;;;;48.65;32.72;;;7.60;99.90;;;;;;5064604;28;20439;-74
2023/02/16 09:15:42;;;;;;;58.75;38.63;;;7.60;99.90;;;;;;5049399;28;20497;-75
2023/02/16 09:18:11;;;;;;;48.65;31.30;;;7.70;99.90;;;;;;5045473;28;20049;-74
2023/02/16 09:20:40;;;;;;;50.03;34.75;;;7.70;99.90;;;;;;5041052;28;20628;-76
2023/02/16 09:23:08;;;;;;;53.20;34.85;;;7.70;99.90;;;;;;5044480;28;20036;-75
2023/02/16 09:25:35;;;;;;;49.35;31.00;;;7.70;99.90;;;;;;5050102;28;20025;-75
2023/02/16 09:28:02;;;;;;;49.45;34.80;;;7.70;99.90;;;;;;5062551;28;20031;-73
2023/02/16 09:30:29;;;;;;;51.80;35.17;;;7.70;99.90;;;;;;5029602;28;20036;-76
2023/02/16 09:32:55;;;;;;;48.40;32.28;;;7.80;99.90;;;;;;5044733;28;20024;-75
2023/02/16 09:35:21;;;;;;;47.05;32.03;;;7.80;99.90;;;;;;5046596;28;20469;-76
2023/02/16 09:37:48;;;;;;;46.65;33.15;;;7.80;99.90;;;;;;5060623;28;20339;-75
2023/02/16 09:40:15;;;;;;;50.08;35.65;;;7.80;99.90;;;;;;5040283;28;20028;-77
2023/02/16 09:43:07;;;;;;;51.45;35.35;;;7.90;99.90;;;;;;5043741;28;20046;-76
2023/02/16 09:45:41;;;;;;;49.25;34.67;;;7.80;99.90;;;;;;5046432;28;20047;-76
2023/02/16 09:48:26;;;;;;;44.65;30.63;;;8.00;99.90;;;;;;5046382;28;20028;-74
2023/02/16 09:50:53;;;;;;;45.33;29.42;;;8.00;99.90;;;;;;5052319;28;20029;-76
2023/02/16 09:53:28;;;;;;;50.63;34.17;;;8.10;99.90;;;;;;5064269;28;20029;-74
2023/02/16 09:56:04;;;;;;;45.25;32.03;;;8.10;99.90;;;;;;5058586;28;20158;-74
2023/02/16 09:59:09;;;;;;;54.58;35.90;;;8.10;99.90;;;;;;5053063;28;20095;-76
2023/02/16 10:01:45;;;;;;;49.10;34.10;;;8.20;99.90;;;;;;5052942;28;21852;-73
2023/02/16 10:04:37;;;;;;;48.55;35.22;;;8.20;99.90;;;;;;5062897;28;20479;-74
2023/02/16 10:07:42;;;;;;;46.30;30.45;;;8.20;99.90;;;;;;5064941;28;20478;-79
2023/02/16 10:10:14;;;;;;;41.55;30.20;;;8.20;99.90;;;;;;5040812;28;20032;-77
2023/02/16 10:13:04;;;;;;;46.63;32.03;;;8.30;99.90;;;;;;5058171;28;20040;-76
2023/02/16 10:15:32;;;;;;;49.88;33.97;;;8.30;99.90;;;;;;5063656;28;20032;-76
2023/02/16 10:18:17;;;;;;;43.13;29.92;;;8.30;99.90;;;;;;5051456;28;20045;-73
2023/02/16 10:20:47;;;;;;;47.45;31.85;;;8.30;99.90;;;;;;5032443;28;20565;-79
2023/02/16 10:23:41;;;;;;;52.38;38.08;;;8.30;99.90;;;;;;5062847;28;20016;-76
2023/02/16 10:26:35;;;;;;;46.70;32.95;;;8.30;99.90;;;;;;5051825;28;20447;-76
2023/02/16 10:29:06;;;;;;;52.08;34.92;;;8.40;99.90;;;;;;5047862;28;20044;-74
2023/02/16 10:31:54;;;;;;;46.30;32.25;;;8.40;99.90;;;;;;5052471;28;20040;-75
2023/02/16 10:35:14;;;;;;;42.03;29.00;;;8.40;99.90;;;;;;5064681;28;20398;-76
2023/02/16 10:38:03;;;;;;;49.33;34.75;;;8.50;99.90;;;;;;5014209;28;20060;-72
2023/02/16 10:40:48;;;;;;;49.20;34.58;;;8.50;99.90;;;;;;5012327;28;20055;-76
2023/02/16 10:44:06;;;;;;;47.70;34.13;;;8.50;99.90;;;;;;5061671;28;20024;-73
2023/02/16 10:46:45;;;;;;;50.55;33.78;;;8.40;99.90;;;;;;5011575;28;20045;-76
2023/02/16 10:49:13;;;;;;;43.83;32.40;;;8.40;99.90;;;;;;5055236;28;20040;-73
2023/02/16 10:51:43;;;;;;;57.75;37.70;;;8.40;99.90;;;;;;5041916;28;20025;-73
2023/02/16 10:54:25;;;;;;;54.72;38.35;;;8.40;99.90;;;;;;5064771;28;20486;-75
2023/02/16 10:56:59;;;;;;;52.97;36.78;;;8.40;99.90;;;;;;5052248;28;20067;-74
2023/02/16 10:59:43;;;;;;;54.00;37.88;;;8.40;99.90;;;;;;5033366;28;20043;-74
2023/02/16 11:02:22;;;;;;;50.38;35.20;;;8.40;99.90;;;;;;5054820;28;20036;-74
2023/02/16 11:04:51;;;;;;;55.83;37.75;;;8.30;99.90;;;;;;5062930;28;20040;-74
2023/02/16 11:07:23;;;;;;;54.25;37.60;;;8.20;99.90;;;;;;5060936;28;20498;-75
2023/02/16 11:09:52;;;;;;;54.25;34.67;;;8.20;99.90;;;;;;5037613;28;20039;-76
2023/02/16 11:12:38;;;;;;;58.35;37.97;;;8.20;99.90;;;;;;5028124;28;20033;-75
2023/02/16 11:15:15;;;;;;;54.58;37.03;;;8.20;99.90;;;;;;5023480;28;20039;-72
2023/02/16 11:17:55;;;;;;;53.13;38.22;;;8.10;99.90;;;;;;5044381;28;20593;-75
2023/02/16 11:20:51;;;;;;;51.05;35.17;;;8.10;99.90;;;;;;5039598;28;20040;-76
2023/02/16 11:23:27;;;;;;;57.05;37.47;;;8.10;99.90;;;;;;5061283;28;20505;-75
2023/02/16 11:25:56;;;;;;;64.47;42.75;;;8.10;99.90;;;;;;5049891;28;20326;-73
2023/02/16 11:28:28;;;;;;;50.58;35.40;;;8.10;99.90;;;;;;5062704;28;20032;-73
2023/02/16 11:31:08;;;;;;;53.78;38.85;;;8.10;99.90;;;;;;5037533;28;20044;-73
2023/02/16 11:33:36;;;;;;;53.45;35.58;;;8.10;99.90;;;;;;5060964;28;20046;-73
2023/02/16 11:36:34;;;;;;;58.72;41.55;;;8.20;99.90;;;;;;5045700;28;20028;-74
2023/02/16 11:39:12;;;;;;;60.15;41.25;;;8.20;99.90;;;;;;5045828;28;20502;-73
2023/02/16 11:41:44;;;;;;;49.38;36.00;;;8.20;99.90;;;;;;5042428;28;20041;-73
2023/02/16 11:44:25;;;;;;;53.72;37.75;;;8.20;99.90;;;;;;5066546;28;20510;-73
2023/02/16 11:46:54;;;;;;;52.33;36.78;;;8.30;99.90;;;;;;5031568;28;20031;-74
2023/02/16 11:49:40;;;;;;;48.33;33.30;;;8.30;99.90;;;;;;5051667;28;20032;-73
2023/02/16 11:52:22;;;;;;;56.80;41.25;;;8.30;99.90;;;;;;5059074;28;20052;-74
2023/02/16 11:54:52;;;;;;;55.25;38.88;;;8.30;99.90;;;;;;5055640;28;20395;-74
2023/02/16 11:57:28;;;;;;;53.58;37.97;;;8.30;99.90;;;;;;5047735;28;20045;-73
2023/02/16 11:59:55;;;;;;;58.13;39.08;;;8.30;99.90;;;;;;5036292;28;20047;-74
2023/02/16 12:02:27;;;;;;;63.78;43.20;;;8.40;99.90;;;;;;5054953;28;20369;-74
2023/02/16 12:04:59;;;;;;;50.47;36.27;;;8.50;99.90;;;;;;5032575;28;20455;-74
2023/02/16 12:08:13;;;;;;;50.83;36.60;;;8.50;99.90;;;;;;5066652;28;20029;-76
2023/02/16 12:11:09;;;;;;;59.92;40.38;;;8.60;99.90;;;;;;5021114;28;20045;-76
2023/02/16 12:13:41;;;;;;;53.58;37.33;;;8.70;99.90;;;;;;5065084;28;20395;-74
2023/02/16 12:16:31;;;;;;;46.67;33.50;;;8.80;99.90;;;;;;5046561;28;20044;-74
2023/02/16 12:19:42;;;;;;;46.97;34.67;;;8.90;99.90;;;;;;5057426;28;20048;-73
2023/02/16 12:22:24;;;;;;;47.55;35.67;;;9.00;99.90;;;;;;5029561;28;20040;-73
2023/02/16 12:25:21;;;;;;;49.40;37.13;;;9.10;99.90;;;;;;5067056;28;20727;-74
2023/02/16 12:28:04;;;;;;;47.25;34.42;;;9.20;99.90;;;;;;5050760;28;20481;-77
2023/02/16 12:31:16;;;;;;;51.03;38.63;;;9.30;99.90;;;;;;5041111;28;20566;-76
2023/02/16 12:34:09;;;;;;;87.22;59.33;;;9.40;99.90;;;;;;4989009;28;20049;-73
2023/02/16 12:37:06;;;;;;;59.53;42.00;;;9.50;99.90;;;;;;5050841;28;20032;-73
2023/02/16 12:40:06;;;;;;;51.72;36.67;;;9.60;99.90;;;;;;5066195;28;20043;-73
2023/02/16 12:43:02;;;;;;;50.50;37.63;;;9.70;99.90;;;;;;5041497;28;20047;-74
2023/02/16 12:45:33;;;;;;;52.70;38.70;;;9.80;99.90;;;;;;5037673;28;20051;-73
2023/02/16 12:48:06;;;;;;;47.25;34.25;;;9.80;99.90;;;;;;5050373;28;20040;-73
2023/02/16 12:50:34;;;;;;;44.55;33.40;;;9.80;99.90;;;;;;5040623;28;20047;-73
2023/02/16 12:53:03;;;;;;;48.47;37.28;;;9.90;99.90;;;;;;5061461;28;20040;-75
2023/02/16 12:55:43;;;;;;;46.35;32.67;;;9.90;99.90;;;;;;5042755;28;20028;-72
2023/02/16 12:58:24;;;;;;;49.97;36.60;;;9.90;99.90;;;;;;5062832;28;20039;-73
2023/02/16 13:00:56;;;;;;;48.20;36.70;;;10.10;99.90;;;;;;5059099;28;20029;-72
2023/02/16 13:03:31;;;;;;;49.55;37.28;;;10.20;99.90;;;;;;5051223;28;20046;-73
2023/02/16 13:06:25;;;;;;;47.55;34.67;;;10.30;99.90;;;;;;5032246;28;20529;-74
2023/02/16 13:09:10;;;;;;;52.40;37.15;;;10.40;99.90;;;;;;5048231;28;20403;-72
2023/02/16 13:11:48;;;;;;;49.20;35.45;;;10.30;99.90;;;;;;5056590;28;20367;-72
2023/02/16 13:14:22;;;;;;;46.47;34.13;;;10.30;99.90;;;;;;5016846;28;20039;-72
2023/02/16 13:16:56;;;;;;;53.80;40.05;;;10.30;99.90;;;;;;5055999;28;20036;-73
2023/02/16 13:19:23;;;;;;;48.92;36.30;;;10.30;99.90;;;;;;5060299;28;20056;-72
2023/02/16 13:21:52;;;;;;;51.88;38.83;;;10.40;99.90;;;;;;5026381;28;20580;-75
2023/02/16 13:24:30;;;;;;;50.03;36.33;;;10.40;99.90;;;;;;5044941;28;20833;-72
2023/02/16 13:27:15;;;;;;;48.03;37.05;;;10.40;99.90;;;;;;5046731;28;20053;-74
2023/02/16 13:29:59;;;;;;;50.42;34.97;;;10.50;99.90;;;;;;5062664;28;20039;-73
2023/02/16 13:32:37;;;;;;;47.58;34.45;;;10.60;99.90;;;;;;5037938;28;20699;-72
2023/02/16 13:35:07;;;;;;;44.55;32.55;;;10.60;99.90;;;;;;5061173;28;20491;-74
2023/02/16 13:38:10;;;;;;;40.70;30.25;;;10.70;99.90;;;;;;5020347;28;20036;-73
2023/02/16 13:40:42;;;;;;;46.00;33.78;;;10.80;99.90;;;;;;5038045;28;20040;-74
2023/02/16 13:43:35;;;;;;;42.13;32.13;;;10.90;99.90;;;;;;5020902;28;20035;-75